sensor_id;sensor_type;location;lat;lon;timestamp;pressure;altitude;pressure_sealevel;temperature;humidity
46323;BME280;32044;52.386;13.278;2022-07-09T00:02:03;46474.38;;;-141.84;69.96
46323;BME280;32044;52.386;13.278;2022-07-09T00:04:28;46474.38;;;-141.84;70.19
46323;BME280;32044;52.386;13.278;2022-07-09T00:06:53;46486.09;;;-141.84;70.07
46323;BME280;32044;52.386;13.278;2022-07-09T00:09:18;46433.31;;;-141.84;70.27
46323;BME280;32044;52.386;13.278;2022-07-09T00:11:43;46484.16;;;-141.84;69.92
46323;BME280;32044;52.386;13.278;2022-07-09T00:14:09;46425.50;;;-141.84;70.18
46323;BME280;32044;52.386;13.278;2022-07-09T00:16:34;46454.81;;;-141.84;70.07
46323;BME280;32044;52.386;13.278;2022-07-09T00:18:59;46441.13;;;-141.84;69.86
46323;BME280;32044;52.386;13.278;2022-07-09T00:21:24;46452.88;;;-141.84;69.94
46323;BME280;32044;52.386;13.278;2022-07-09T00:23:49;46493.94;;;-141.84;70.43
46323;BME280;32044;52.386;13.278;2022-07-09T00:26:14;46425.50;;;-141.84;70.42
46323;BME280;32044;52.386;13.278;2022-07-09T00:28:40;46452.88;;;-141.84;70.28
46323;BME280;32044;52.386;13.278;2022-07-09T00:31:06;46491.97;;;-141.84;70.51
46323;BME280;32044;52.386;13.278;2022-07-09T00:33:31;46441.13;;;-141.84;70.58
46323;BME280;32044;52.386;13.278;2022-07-09T00:35:56;46480.25;;;-141.84;70.40
46323;BME280;32044;52.386;13.278;2022-07-09T00:38:21;46462.66;;;-141.84;70.49
46323;BME280;32044;52.386;13.278;2022-07-09T00:40:47;46452.88;;;-141.84;70.20
46323;BME280;32044;52.386;13.278;2022-07-09T00:43:18;46437.22;;;-141.84;70.11
46323;BME280;32044;52.386;13.278;2022-07-09T00:45:44;46421.59;;;-141.84;69.77
46323;BME280;32044;52.386;13.278;2022-07-09T00:48:09;46464.59;;;-141.84;69.94
46323;BME280;32044;52.386;13.278;2022-07-09T00:50:34;46478.28;;;-141.84;70.02
46323;BME280;32044;52.386;13.278;2022-07-09T00:53:00;46464.59;;;-141.84;69.73
46323;BME280;32044;52.386;13.278;2022-07-09T00:55:26;46447.00;;;-141.84;69.79
46323;BME280;32044;52.386;13.278;2022-07-09T00:57:51;46425.50;;;-141.84;69.74
46323;BME280;32044;52.386;13.278;2022-07-09T01:00:16;46448.97;;;-141.84;69.70
46323;BME280;32044;52.386;13.278;2022-07-09T01:02:43;46478.28;;;-141.84;69.77
46323;BME280;32044;52.386;13.278;2022-07-09T01:05:08;46433.31;;;-141.84;70.13
46323;BME280;32044;52.386;13.278;2022-07-09T01:07:33;46433.31;;;-141.84;70.18
46323;BME280;32044;52.386;13.278;2022-07-09T01:09:58;46435.28;;;-141.84;70.08
46323;BME280;32044;52.386;13.278;2022-07-09T01:12:24;46435.28;;;-141.84;69.93
46323;BME280;32044;52.386;13.278;2022-07-09T01:14:49;46441.13;;;-141.84;70.09
46323;BME280;32044;52.386;13.278;2022-07-09T01:17:14;46445.06;;;-141.84;70.11
46323;BME280;32044;52.386;13.278;2022-07-09T01:19:40;46490.03;;;-141.84;69.95
46323;BME280;32044;52.386;13.278;2022-07-09T01:22:05;46423.53;;;-141.84;70.10
46323;BME280;32044;52.386;13.278;2022-07-09T01:24:30;46466.56;;;-141.84;70.44
46323;BME280;32044;52.386;13.278;2022-07-09T01:26:55;46425.50;;;-141.84;70.40
46323;BME280;32044;52.386;13.278;2022-07-09T01:29:21;46433.31;;;-141.84;70.66
46323;BME280;32044;52.386;13.278;2022-07-09T01:31:46;46488.06;;;-141.84;70.80
46323;BME280;32044;52.386;13.278;2022-07-09T01:34:11;46460.69;;;-141.84;70.82
46323;BME280;32044;52.386;13.278;2022-07-09T01:36:36;46472.44;;;-141.84;70.61
46323;BME280;32044;52.386;13.278;2022-07-09T01:39:02;46460.69;;;-141.84;70.68
46323;BME280;32044;52.386;13.278;2022-07-09T01:41:27;46437.22;;;-141.84;71.19
46323;BME280;32044;52.386;13.278;2022-07-09T01:43:52;46472.44;;;-141.84;71.27
46323;BME280;32044;52.386;13.278;2022-07-09T01:46:17;46466.56;;;-141.84;71.66
46323;BME280;32044;52.386;13.278;2022-07-09T01:48:42;46437.22;;;-141.84;71.34
46323;BME280;32044;52.386;13.278;2022-07-09T01:51:08;46450.91;;;-141.84;71.21
46323;BME280;32044;52.386;13.278;2022-07-09T01:53:34;46445.06;;;-141.84;71.20
46323;BME280;32044;52.386;13.278;2022-07-09T01:56:03;46468.50;;;-141.84;71.75
46323;BME280;32044;52.386;13.278;2022-07-09T01:58:28;46466.56;;;-141.84;71.85
46323;BME280;32044;52.386;13.278;2022-07-09T02:00:54;46437.22;;;-141.84;71.86
46323;BME280;32044;52.386;13.278;2022-07-09T02:03:19;46458.75;;;-141.84;72.02
46323;BME280;32044;52.386;13.278;2022-07-09T02:05:44;46460.69;;;-141.84;71.96
46323;BME280;32044;52.386;13.278;2022-07-09T02:08:10;46474.38;;;-141.84;72.06
46323;BME280;32044;52.386;13.278;2022-07-09T02:10:35;46452.88;;;-141.84;71.56
46323;BME280;32044;52.386;13.278;2022-07-09T02:13:00;46460.69;;;-141.84;71.43
46323;BME280;32044;52.386;13.278;2022-07-09T02:15:25;46437.22;;;-141.84;72.02
46323;BME280;32044;52.386;13.278;2022-07-09T02:17:50;46402.03;;;-141.84;71.68
46323;BME280;32044;52.386;13.278;2022-07-09T02:20:16;46447.00;;;-141.84;72.19
46323;BME280;32044;52.386;13.278;2022-07-09T02:22:41;46476.34;;;-141.84;72.46
46323;BME280;32044;52.386;13.278;2022-07-09T02:25:07;46427.44;;;-141.84;72.75
46323;BME280;32044;52.386;13.278;2022-07-09T02:27:32;46415.72;;;-141.84;72.40
46323;BME280;32044;52.386;13.278;2022-07-09T02:29:57;46425.50;;;-141.84;72.58
46323;BME280;32044;52.386;13.278;2022-07-09T02:32:23;46439.19;;;-141.84;72.38
46323;BME280;32044;52.386;13.278;2022-07-09T02:34:48;46458.75;;;-141.84;72.60
46323;BME280;32044;52.386;13.278;2022-07-09T02:37:13;46439.19;;;-141.84;71.78
46323;BME280;32044;52.386;13.278;2022-07-09T02:39:38;46447.00;;;-141.84;71.29
46323;BME280;32044;52.386;13.278;2022-07-09T02:42:03;46464.59;;;-141.84;71.41
46323;BME280;32044;52.386;13.278;2022-07-09T02:44:28;46441.13;;;-141.84;71.97
46323;BME280;32044;52.386;13.278;2022-07-09T02:46:54;46466.56;;;-141.84;71.96
46323;BME280;32044;52.386;13.278;2022-07-09T02:49:19;46476.34;;;-141.84;71.78
46323;BME280;32044;52.386;13.278;2022-07-09T02:51:46;46480.25;;;-141.84;71.70
46323;BME280;32044;52.386;13.278;2022-07-09T02:54:11;46468.50;;;-141.84;71.25
46323;BME280;32044;52.386;13.278;2022-07-09T02:56:36;46480.25;;;-141.84;71.16
46323;BME280;32044;52.386;13.278;2022-07-09T02:59:02;46470.47;;;-141.84;71.42
46323;BME280;32044;52.386;13.278;2022-07-09T03:01:28;46476.34;;;-141.84;71.52
46323;BME280;32044;52.386;13.278;2022-07-09T03:03:53;46464.59;;;-141.84;71.18
46323;BME280;32044;52.386;13.278;2022-07-09T03:06:18;46448.97;;;-141.84;71.24
46323;BME280;32044;52.386;13.278;2022-07-09T03:08:43;46490.03;;;-141.84;71.05
46323;BME280;32044;52.386;13.278;2022-07-09T03:11:08;46441.13;;;-141.84;71.20
46323;BME280;32044;52.386;13.278;2022-07-09T03:13:34;46448.97;;;-141.84;71.25
46323;BME280;32044;52.386;13.278;2022-07-09T03:15:59;46439.19;;;-141.84;71.57
46323;BME280;32044;52.386;13.278;2022-07-09T03:18:24;46435.28;;;-141.84;71.47
46323;BME280;32044;52.386;13.278;2022-07-09T03:20:49;46476.34;;;-141.84;71.55
46323;BME280;32044;52.386;13.278;2022-07-09T03:23:15;46464.59;;;-141.84;71.61
46323;BME280;32044;52.386;13.278;2022-07-09T03:25:41;46488.06;;;-141.84;71.56
46323;BME280;32044;52.386;13.278;2022-07-09T03:28:06;46464.59;;;-141.84;71.50
46323;BME280;32044;52.386;13.278;2022-07-09T03:30:31;46460.69;;;-141.84;71.61
46323;BME280;32044;52.386;13.278;2022-07-09T03:32:56;46445.06;;;-141.84;71.37
46323;BME280;32044;52.386;13.278;2022-07-09T03:35:21;46493.94;;;-141.84;71.81
46323;BME280;32044;52.386;13.278;2022-07-09T03:37:46;46464.59;;;-141.84;71.40
46323;BME280;32044;52.386;13.278;2022-07-09T03:40:12;46460.69;;;-141.84;71.21
46323;BME280;32044;52.386;13.278;2022-07-09T03:42:37;46484.16;;;-141.84;70.87
46323;BME280;32044;52.386;13.278;2022-07-09T03:45:02;46470.47;;;-141.84;71.03
46323;BME280;32044;52.386;13.278;2022-07-09T03:47:27;46493.94;;;-141.84;70.91
46323;BME280;32044;52.386;13.278;2022-07-09T03:49:52;46437.22;;;-141.84;70.95
46323;BME280;32044;52.386;13.278;2022-07-09T03:52:18;46437.22;;;-141.84;70.71
46323;BME280;32044;52.386;13.278;2022-07-09T03:54:43;46441.13;;;-141.84;70.31
46323;BME280;32044;52.386;13.278;2022-07-09T03:57:08;46462.66;;;-141.84;70.10
46323;BME280;32044;52.386;13.278;2022-07-09T03:59:33;46480.25;;;-141.84;69.88
46323;BME280;32044;52.386;13.278;2022-07-09T04:01:59;46460.69;;;-141.84;69.81
46323;BME280;32044;52.386;13.278;2022-07-09T04:04:24;46484.16;;;-141.84;69.24
46323;BME280;32044;52.386;13.278;2022-07-09T04:06:49;46468.50;;;-141.84;69.18
46323;BME280;32044;52.386;13.278;2022-07-09T04:09:14;46429.41;;;-141.84;68.81
46323;BME280;32044;52.386;13.278;2022-07-09T04:11:39;46493.94;;;-141.84;68.28
46323;BME280;32044;52.386;13.278;2022-07-09T04:14:05;46445.06;;;-141.84;68.25
46323;BME280;32044;52.386;13.278;2022-07-09T04:16:30;46433.31;;;-141.84;68.27
46323;BME280;32044;52.386;13.278;2022-07-09T04:18:55;46454.81;;;-141.84;68.47
46323;BME280;32044;52.386;13.278;2022-07-09T04:21:21;46460.69;;;-141.84;68.47
46323;BME280;32044;52.386;13.278;2022-07-09T04:23:49;46472.44;;;-141.84;67.91
46323;BME280;32044;52.386;13.278;2022-07-09T04:26:14;46460.69;;;-141.84;67.77
46323;BME280;32044;52.386;13.278;2022-07-09T04:28:39;46484.16;;;-141.84;67.97
46323;BME280;32044;52.386;13.278;2022-07-09T04:31:05;46460.69;;;-141.84;67.76
46323;BME280;32044;52.386;13.278;2022-07-09T04:33:30;46447.00;;;-141.84;67.52
46323;BME280;32044;52.386;13.278;2022-07-09T04:35:55;46470.47;;;-141.84;67.52
46323;BME280;32044;52.386;13.278;2022-07-09T04:38:20;46462.66;;;-141.84;67.33
46323;BME280;32044;52.386;13.278;2022-07-09T04:40:45;46464.59;;;-141.84;67.54
46323;BME280;32044;52.386;13.278;2022-07-09T04:43:10;46462.66;;;-141.84;67.55
46323;BME280;32044;52.386;13.278;2022-07-09T04:45:36;46499.78;;;-141.84;67.28
46323;BME280;32044;52.386;13.278;2022-07-09T04:48:01;46507.63;;;-141.84;67.60
46323;BME280;32044;52.386;13.278;2022-07-09T04:50:26;46454.81;;;-141.84;67.22
46323;BME280;32044;52.386;13.278;2022-07-09T04:52:51;46456.78;;;-141.84;67.52
46323;BME280;32044;52.386;13.278;2022-07-09T04:55:17;46460.69;;;-141.84;67.57
46323;BME280;32044;52.386;13.278;2022-07-09T04:57:42;46460.69;;;-141.84;67.01
46323;BME280;32044;52.386;13.278;2022-07-09T05:00:07;46441.13;;;-141.84;67.13
46323;BME280;32044;52.386;13.278;2022-07-09T05:02:33;46476.34;;;-141.84;67.27
46323;BME280;32044;52.386;13.278;2022-07-09T05:04:58;46404.00;;;-141.84;66.98
46323;BME280;32044;52.386;13.278;2022-07-09T05:07:23;46484.16;;;-141.84;67.21
46323;BME280;32044;52.386;13.278;2022-07-09T05:09:48;46484.16;;;-141.84;66.96
46323;BME280;32044;52.386;13.278;2022-07-09T05:12:13;46433.31;;;-141.84;67.07
46323;BME280;32044;52.386;13.278;2022-07-09T05:14:39;46456.78;;;-141.84;66.79
46323;BME280;32044;52.386;13.278;2022-07-09T05:17:04;46468.50;;;-141.84;66.60
46323;BME280;32044;52.386;13.278;2022-07-09T05:19:30;46480.25;;;-141.84;66.85
46323;BME280;32044;52.386;13.278;2022-07-09T05:21:55;46431.38;;;-141.84;66.92
46323;BME280;32044;52.386;13.278;2022-07-09T05:24:20;46450.91;;;-141.84;66.98
46323;BME280;32044;52.386;13.278;2022-07-09T05:26:46;46482.19;;;-141.84;66.70
46323;BME280;32044;52.386;13.278;2022-07-09T05:29:11;46478.28;;;-141.84;66.82
46323;BME280;32044;52.386;13.278;2022-07-09T05:31:36;46456.78;;;-141.84;66.97
46323;BME280;32044;52.386;13.278;2022-07-09T05:34:01;46472.44;;;-141.84;66.68
46323;BME280;32044;52.386;13.278;2022-07-09T05:36:27;46470.47;;;-141.84;66.82
46323;BME280;32044;52.386;13.278;2022-07-09T05:38:55;46429.41;;;-141.84;66.95
46323;BME280;32044;52.386;13.278;2022-07-09T05:41:20;46460.69;;;-141.84;66.87
46323;BME280;32044;52.386;13.278;2022-07-09T05:43:47;46468.50;;;-141.84;66.33
46323;BME280;32044;52.386;13.278;2022-07-09T05:46:12;46452.88;;;-141.84;66.35
46323;BME280;32044;52.386;13.278;2022-07-09T05:48:37;46503.72;;;-141.84;65.21
46323;BME280;32044;52.386;13.278;2022-07-09T05:51:03;46452.88;;;-141.84;64.86
46323;BME280;32044;52.386;13.278;2022-07-09T05:53:28;46429.41;;;-141.84;64.39
46323;BME280;32044;52.386;13.278;2022-07-09T05:55:53;46437.22;;;-141.84;64.48
46323;BME280;32044;52.386;13.278;2022-07-09T05:58:18;46452.88;;;-141.84;63.82
46323;BME280;32044;52.386;13.278;2022-07-09T06:00:43;46503.72;;;-141.84;63.15
46323;BME280;32044;52.386;13.278;2022-07-09T06:03:08;46474.38;;;-141.84;63.29
46323;BME280;32044;52.386;13.278;2022-07-09T06:05:34;46474.38;;;-141.84;63.32
46323;BME280;32044;52.386;13.278;2022-07-09T06:07:59;46448.97;;;-141.84;62.56
46323;BME280;32044;52.386;13.278;2022-07-09T06:10:24;46472.44;;;-141.84;63.08
46323;BME280;32044;52.386;13.278;2022-07-09T06:12:49;46491.97;;;-141.84;62.36
46323;BME280;32044;52.386;13.278;2022-07-09T06:15:14;46433.31;;;-141.84;61.86
46323;BME280;32044;52.386;13.278;2022-07-09T06:17:40;46484.16;;;-141.84;61.79
46323;BME280;32044;52.386;13.278;2022-07-09T06:20:05;46476.34;;;-141.84;61.97
46323;BME280;32044;52.386;13.278;2022-07-09T06:22:31;46454.81;;;-141.84;61.61
46323;BME280;32044;52.386;13.278;2022-07-09T06:24:56;46474.38;;;-141.84;61.39
46323;BME280;32044;52.386;13.278;2022-07-09T06:27:21;46417.69;;;-141.84;61.54
46323;BME280;32044;52.386;13.278;2022-07-09T06:29:46;46462.66;;;-141.84;61.33
46323;BME280;32044;52.386;13.278;2022-07-09T06:32:11;46447.00;;;-141.84;60.03
46323;BME280;32044;52.386;13.278;2022-07-09T06:34:36;46450.91;;;-141.84;60.02
46323;BME280;32044;52.386;13.278;2022-07-09T06:37:01;46421.59;;;-141.84;61.05
46323;BME280;32044;52.386;13.278;2022-07-09T06:39:27;46448.97;;;-141.84;60.55
46323;BME280;32044;52.386;13.278;2022-07-09T06:42:10;46476.34;;;-141.84;60.51
46323;BME280;32044;52.386;13.278;2022-07-09T06:44:35;46472.44;;;-141.84;60.44
46323;BME280;32044;52.386;13.278;2022-07-09T06:47:01;46472.44;;;-141.84;60.80
46323;BME280;32044;52.386;13.278;2022-07-09T06:49:26;46441.13;;;-141.84;59.03
46323;BME280;32044;52.386;13.278;2022-07-09T06:51:52;46425.50;;;-141.84;59.39
46323;BME280;32044;52.386;13.278;2022-07-09T06:54:17;46468.50;;;-141.84;60.13
46323;BME280;32044;52.386;13.278;2022-07-09T06:56:42;46499.78;;;-141.84;58.32
46323;BME280;32044;52.386;13.278;2022-07-09T06:59:07;46417.69;;;-141.84;58.13
46323;BME280;32044;52.386;13.278;2022-07-09T07:01:32;46431.38;;;-141.84;59.09
46323;BME280;32044;52.386;13.278;2022-07-09T07:03:57;46464.59;;;-141.84;58.56
46323;BME280;32044;52.386;13.278;2022-07-09T07:06:23;46448.97;;;-141.84;57.20
46323;BME280;32044;52.386;13.278;2022-07-09T07:08:48;46445.06;;;-141.84;55.93
46323;BME280;32044;52.386;13.278;2022-07-09T07:11:13;46497.84;;;-141.84;56.16
46323;BME280;32044;52.386;13.278;2022-07-09T07:13:39;46519.34;;;-141.84;55.77
46323;BME280;32044;52.386;13.278;2022-07-09T07:16:04;46433.31;;;-141.84;54.61
46323;BME280;32044;52.386;13.278;2022-07-09T07:18:29;46464.59;;;-141.84;54.43
46323;BME280;32044;52.386;13.278;2022-07-09T07:20:54;46484.16;;;-141.84;54.34
46323;BME280;32044;52.386;13.278;2022-07-09T07:23:20;46433.31;;;-141.84;54.95
46323;BME280;32044;52.386;13.278;2022-07-09T07:25:45;46443.09;;;-141.84;56.21
46323;BME280;32044;52.386;13.278;2022-07-09T07:28:10;46476.34;;;-141.84;56.36
46323;BME280;32044;52.386;13.278;2022-07-09T07:30:35;46464.59;;;-141.84;56.31
46323;BME280;32044;52.386;13.278;2022-07-09T07:33:01;46480.25;;;-141.84;56.44
46323;BME280;32044;52.386;13.278;2022-07-09T07:35:26;46466.56;;;-141.84;56.47
46323;BME280;32044;52.386;13.278;2022-07-09T07:37:51;46468.50;;;-141.84;56.53
46323;BME280;32044;52.386;13.278;2022-07-09T07:40:17;46445.06;;;-141.84;56.42
46323;BME280;32044;52.386;13.278;2022-07-09T07:42:42;46437.22;;;-141.84;56.30
46323;BME280;32044;52.386;13.278;2022-07-09T07:45:07;46443.09;;;-141.84;56.64
46323;BME280;32044;52.386;13.278;2022-07-09T07:47:33;46450.91;;;-141.84;55.65
46323;BME280;32044;52.386;13.278;2022-07-09T07:49:58;46482.19;;;-141.84;56.89
46323;BME280;32044;52.386;13.278;2022-07-09T07:52:24;46439.19;;;-141.84;56.83
46323;BME280;32044;52.386;13.278;2022-07-09T07:54:50;46443.09;;;-141.84;56.48
46323;BME280;32044;52.386;13.278;2022-07-09T07:57:15;46433.31;;;-141.84;55.73
46323;BME280;32044;52.386;13.278;2022-07-09T07:59:40;46456.78;;;-141.84;55.38
46323;BME280;32044;52.386;13.278;2022-07-09T08:02:05;46450.91;;;-141.84;55.07
46323;BME280;32044;52.386;13.278;2022-07-09T08:04:30;46448.97;;;-141.84;55.08
46323;BME280;32044;52.386;13.278;2022-07-09T08:06:56;46454.81;;;-141.84;54.91
46323;BME280;32044;52.386;13.278;2022-07-09T08:09:21;46460.69;;;-141.84;55.87
46323;BME280;32044;52.386;13.278;2022-07-09T08:11:46;46429.41;;;-141.84;55.56
46323;BME280;32044;52.386;13.278;2022-07-09T08:14:11;46452.88;;;-141.84;55.63
46323;BME280;32044;52.386;13.278;2022-07-09T08:16:37;46493.94;;;-141.84;55.14
46323;BME280;32044;52.386;13.278;2022-07-09T08:19:02;46464.59;;;-141.84;56.14
46323;BME280;32044;52.386;13.278;2022-07-09T08:21:27;46480.25;;;-141.84;56.38
46323;BME280;32044;52.386;13.278;2022-07-09T08:23:52;46464.59;;;-141.84;56.48
46323;BME280;32044;52.386;13.278;2022-07-09T08:26:21;46476.34;;;-141.84;56.83
46323;BME280;32044;52.386;13.278;2022-07-09T08:28:46;46499.78;;;-141.84;56.93
46323;BME280;32044;52.386;13.278;2022-07-09T08:31:12;46472.44;;;-141.84;57.89
46323;BME280;32044;52.386;13.278;2022-07-09T08:33:37;46484.16;;;-141.84;58.17
46323;BME280;32044;52.386;13.278;2022-07-09T08:36:02;46452.88;;;-141.84;58.53
46323;BME280;32044;52.386;13.278;2022-07-09T08:38:27;46448.97;;;-141.84;57.78
46323;BME280;32044;52.386;13.278;2022-07-09T08:40:53;46452.88;;;-141.84;56.66
46323;BME280;32044;52.386;13.278;2022-07-09T08:43:19;46466.56;;;-141.84;56.50
46323;BME280;32044;52.386;13.278;2022-07-09T08:45:44;46501.75;;;-141.84;55.63
46323;BME280;32044;52.386;13.278;2022-07-09T08:48:10;46448.97;;;-141.84;54.52
46323;BME280;32044;52.386;13.278;2022-07-09T08:50:35;46472.44;;;-141.84;54.54
46323;BME280;32044;52.386;13.278;2022-07-09T08:53:00;46478.28;;;-141.84;54.84
46323;BME280;32044;52.386;13.278;2022-07-09T08:55:26;46435.28;;;-141.84;55.26
46323;BME280;32044;52.386;13.278;2022-07-09T08:57:53;46441.13;;;-141.84;54.79
46323;BME280;32044;52.386;13.278;2022-07-09T09:00:19;46427.44;;;-141.84;54.59
46323;BME280;32044;52.386;13.278;2022-07-09T09:02:44;46468.50;;;-141.84;54.06
46323;BME280;32044;52.386;13.278;2022-07-09T09:05:13;46464.59;;;-141.84;53.65
46323;BME280;32044;52.386;13.278;2022-07-09T09:07:38;46491.97;;;-141.84;53.95
46323;BME280;32044;52.386;13.278;2022-07-09T09:10:04;46437.22;;;-141.84;53.68
46323;BME280;32044;52.386;13.278;2022-07-09T09:12:29;46413.75;;;-141.84;54.08
46323;BME280;32044;52.386;13.278;2022-07-09T09:14:54;46488.06;;;-141.84;55.82
46323;BME280;32044;52.386;13.278;2022-07-09T09:17:20;46460.69;;;-141.84;56.24
46323;BME280;32044;52.386;13.278;2022-07-09T09:19:45;46437.22;;;-141.84;56.63
46323;BME280;32044;52.386;13.278;2022-07-09T09:22:10;46488.06;;;-141.84;56.85
46323;BME280;32044;52.386;13.278;2022-07-09T09:24:39;46456.78;;;-141.84;57.11
46323;BME280;32044;52.386;13.278;2022-07-09T09:27:06;46495.88;;;-141.84;57.12
46323;BME280;32044;52.386;13.278;2022-07-09T09:29:31;46466.56;;;-141.84;57.37
46323;BME280;32044;52.386;13.278;2022-07-09T09:31:56;46488.06;;;-141.84;56.73
46323;BME280;32044;52.386;13.278;2022-07-09T09:34:22;46474.38;;;-141.84;58.03
46323;BME280;32044;52.386;13.278;2022-07-09T09:36:48;46466.56;;;-141.84;58.36
46323;BME280;32044;52.386;13.278;2022-07-09T09:39:25;46468.50;;;-141.84;58.57
46323;BME280;32044;52.386;13.278;2022-07-09T09:42:00;46509.56;;;-141.84;58.41
46323;BME280;32044;52.386;13.278;2022-07-09T09:44:29;46445.06;;;-141.84;59.80
46323;BME280;32044;52.386;13.278;2022-07-09T09:46:56;46495.88;;;-141.84;62.87
46323;BME280;32044;52.386;13.278;2022-07-09T09:49:22;46429.41;;;-141.84;64.02
46323;BME280;32044;52.386;13.278;2022-07-09T09:51:57;46445.06;;;-141.84;63.51
46323;BME280;32044;52.386;13.278;2022-07-09T09:54:25;46478.28;;;-141.84;63.10
46323;BME280;32044;52.386;13.278;2022-07-09T09:56:50;46495.88;;;-141.84;62.62
46323;BME280;32044;52.386;13.278;2022-07-09T09:59:16;46480.25;;;-141.84;63.28
46323;BME280;32044;52.386;13.278;2022-07-09T10:01:42;46495.88;;;-141.84;61.50
46323;BME280;32044;52.386;13.278;2022-07-09T10:04:11;46462.66;;;-141.84;60.21
46323;BME280;32044;52.386;13.278;2022-07-09T10:06:36;46452.88;;;-141.84;58.90
46323;BME280;32044;52.386;13.278;2022-07-09T10:09:02;46462.66;;;-141.84;58.59
46323;BME280;32044;52.386;13.278;2022-07-09T10:11:37;46468.50;;;-141.84;58.46
46323;BME280;32044;52.386;13.278;2022-07-09T10:14:02;46447.00;;;-141.84;57.70
46323;BME280;32044;52.386;13.278;2022-07-09T10:18:59;46486.09;;;-141.84;56.44
46323;BME280;32044;52.386;13.278;2022-07-09T10:21:31;46495.88;;;-141.84;56.71
46323;BME280;32044;52.386;13.278;2022-07-09T10:23:56;46472.44;;;-141.84;55.93
46323;BME280;32044;52.386;13.278;2022-07-09T10:26:22;46488.06;;;-141.84;55.48
46323;BME280;32044;52.386;13.278;2022-07-09T10:28:47;46445.06;;;-141.84;55.07
46323;BME280;32044;52.386;13.278;2022-07-09T10:31:12;46417.69;;;-141.84;54.78
46323;BME280;32044;52.386;13.278;2022-07-09T10:33:44;46433.31;;;-141.84;54.73
46323;BME280;32044;52.386;13.278;2022-07-09T10:36:14;46462.66;;;-141.84;53.92
46323;BME280;32044;52.386;13.278;2022-07-09T10:38:39;46499.78;;;-141.84;52.26
46323;BME280;32044;52.386;13.278;2022-07-09T10:41:04;46480.25;;;-141.84;50.99
46323;BME280;32044;52.386;13.278;2022-07-09T10:43:42;46468.50;;;-141.84;51.80
46323;BME280;32044;52.386;13.278;2022-07-09T10:46:12;46464.59;;;-141.84;50.82
46323;BME280;32044;52.386;13.278;2022-07-09T10:48:38;46460.69;;;-141.84;50.91
46323;BME280;32044;52.386;13.278;2022-07-09T10:51:03;46468.50;;;-141.84;49.04
46323;BME280;32044;52.386;13.278;2022-07-09T10:53:28;46472.44;;;-141.84;49.74
46323;BME280;32044;52.386;13.278;2022-07-09T10:55:54;46480.25;;;-141.84;48.90
46323;BME280;32044;52.386;13.278;2022-07-09T10:58:19;46445.06;;;-141.84;49.30
46323;BME280;32044;52.386;13.278;2022-07-09T11:00:45;46445.06;;;-141.84;49.26
46323;BME280;32044;52.386;13.278;2022-07-09T11:03:23;46480.25;;;-141.84;47.66
46323;BME280;32044;52.386;13.278;2022-07-09T11:05:48;46460.69;;;-141.84;47.08
46323;BME280;32044;52.386;13.278;2022-07-09T11:08:13;46421.59;;;-141.84;47.64
46323;BME280;32044;52.386;13.278;2022-07-09T11:10:39;46464.59;;;-141.84;46.99
46323;BME280;32044;52.386;13.278;2022-07-09T11:13:13;46470.47;;;-141.84;47.29
46323;BME280;32044;52.386;13.278;2022-07-09T11:15:39;46447.00;;;-141.84;46.95
46323;BME280;32044;52.386;13.278;2022-07-09T11:18:08;46466.56;;;-141.84;47.38
46323;BME280;32044;52.386;13.278;2022-07-09T11:20:42;46437.22;;;-141.84;49.79
46323;BME280;32044;52.386;13.278;2022-07-09T11:23:10;46484.16;;;-141.84;48.14
46323;BME280;32044;52.386;13.278;2022-07-09T11:25:35;46441.13;;;-141.84;48.16
46323;BME280;32044;52.386;13.278;2022-07-09T11:28:01;46441.13;;;-141.84;46.90
46323;BME280;32044;52.386;13.278;2022-07-09T11:30:26;46454.81;;;-141.84;46.68
46323;BME280;32044;52.386;13.278;2022-07-09T11:32:52;46429.41;;;-141.84;46.14
46323;BME280;32044;52.386;13.278;2022-07-09T11:37:49;46445.06;;;-141.84;45.73
46323;BME280;32044;52.386;13.278;2022-07-09T11:40:17;46466.56;;;-141.84;47.11
46323;BME280;32044;52.386;13.278;2022-07-09T11:42:46;46452.88;;;-141.84;48.25
46323;BME280;32044;52.386;13.278;2022-07-09T11:45:11;46460.69;;;-141.84;48.69
46323;BME280;32044;52.386;13.278;2022-07-09T11:47:37;46468.50;;;-141.84;49.39
46323;BME280;32044;52.386;13.278;2022-07-09T11:50:10;46405.94;;;-141.84;48.81
46323;BME280;32044;52.386;13.278;2022-07-09T11:52:46;46468.50;;;-141.84;49.15
46323;BME280;32044;52.386;13.278;2022-07-09T11:55:13;46433.31;;;-141.84;49.58
46323;BME280;32044;52.386;13.278;2022-07-09T11:57:39;46464.59;;;-141.84;49.27
46323;BME280;32044;52.386;13.278;2022-07-09T12:00:07;46415.72;;;-141.84;47.70
46323;BME280;32044;52.386;13.278;2022-07-09T12:02:37;46452.88;;;-141.84;46.05
46323;BME280;32044;52.386;13.278;2022-07-09T12:05:03;46439.19;;;-141.84;44.91
46323;BME280;32044;52.386;13.278;2022-07-09T12:07:28;46437.22;;;-141.84;44.13
46323;BME280;32044;52.386;13.278;2022-07-09T12:09:57;46462.66;;;-141.84;44.36
46323;BME280;32044;52.386;13.278;2022-07-09T12:12:23;46439.19;;;-141.84;42.85
46323;BME280;32044;52.386;13.278;2022-07-09T12:14:48;46460.69;;;-141.84;43.53
46323;BME280;32044;52.386;13.278;2022-07-09T12:17:20;46425.50;;;-141.84;42.85
46323;BME280;32044;52.386;13.278;2022-07-09T12:19:47;46452.88;;;-141.84;42.18
46323;BME280;32044;52.386;13.278;2022-07-09T12:22:12;46425.50;;;-141.84;43.52
46323;BME280;32044;52.386;13.278;2022-07-09T12:24:37;46443.09;;;-141.84;44.00
46323;BME280;32044;52.386;13.278;2022-07-09T12:27:02;46402.03;;;-141.84;44.37
46323;BME280;32044;52.386;13.278;2022-07-09T12:29:28;46445.06;;;-141.84;45.57